Time;durP1;ratioP1;P1;durP2;ratioP2;P2;SDS_P1;SDS_P2;PMS_P1;PMS_P2;Temp;Humidity;BMP_temperature;BMP_pressure;BME280_temperature;BME280_humidity;BME280_pressure;Samples;Min_cycle;Max_cycle;Signal;HPM_P1;HPM_P2
2024/01/27 00:02:31;;;;;;;5.15;2.33;;;;;;;;;;4893674;23;20612;-94
2024/01/27 00:04:57;;;;;;;4.53;2.92;;;;;;;;;;4862309;29;20034;-89
2024/01/27 00:22:57;;;;;;;3.58;3.08;;;;;;;;;;5681077;23;20023;-88
2024/01/27 00:31:03;;;;;;;7.40;4.80;;;;;;;;;;5050802;23;20374;-88
2024/01/27 00:39:16;;;;;;;7.38;3.65;;;;;;;;;;5576617;23;20526;-93
2024/01/27 00:41:54;;;;;;;5.00;3.22;;;;;;;;;;4865503;29;20112;-94
2024/01/27 00:50:02;;;;;;;4.10;3.20;;;;;;;;;;4881164;29;20100;-95
2024/01/27 00:52:56;;;;;;;2.45;2.17;;;;;;;;;;4880435;29;20553;-89
2024/01/27 00:55:22;;;;;;;5.43;2.55;;;;;;;;;;4847519;29;20048;-89
2024/01/27 00:57:59;;;;;;;5.05;2.97;;;;;;;;;;4847218;29;20444;-94
2024/01/27 01:04:04;;;;;;;;;;;;;;;;;;;;;
2024/01/27 01:06:48;;;;;;;4.82;2.83;;;;;;;;;;4881925;29;20035;-85
2024/01/27 01:09:29;;;;;;;4.57;3.03;;;;;;;;;;4869394;29;20039;-96
2024/01/27 01:12:02;;;;;;;5.13;2.50;;;;;;;;;;4886517;29;20040;-93
2024/01/27 01:19:38;;;;;;;5.45;3.70;;;;;;;;;;5475425;23;20049;-89
2024/01/27 01:22:48;;;;;;;5.18;3.13;;;;;;;;;;4865576;29;20040;-94
2024/01/27 01:25:33;;;;;;;7.65;3.30;;;;;;;;;;4865250;29;20037;-95
2024/01/27 01:28:48;;;;;;;;;;;;;;;;;;;;;
2024/01/27 01:31:46;;;;;;;2.95;2.08;;;;;;;;;;4883139;29;20055;-95
2024/01/27 01:34:34;;;;;;;3.55;2.47;;;;;;;;;;4884107;29;20024;-96
2024/01/27 01:37:13;;;;;;;;;;;;;;;;;;;;;
2024/01/27 01:42:48;;;;;;;4.63;2.85;;;;;;;;;;4893229;23;20113;-88
2024/01/27 01:45:17;;;;;;;4.90;2.58;;;;;;;;;;4959040;23;20015;-96
2024/01/27 01:48:02;;;;;;;5.40;3.15;;;;;;;;;;4883932;29;20105;-96
2024/01/27 01:50:37;;;;;;;5.13;2.10;;;;;;;;;;4866813;29;20479;-96
2024/01/27 01:56:19;;;;;;;6.85;2.80;;;;;;;;;;4865148;29;20189;-96
2024/01/27 02:01:52;;;;;;;3.75;2.50;;;;;;;;;;4953903;23;20052;-96
2024/01/27 02:10:19;;;;;;;3.65;2.15;;;;;;;;;;4824939;29;20062;-96
2024/01/27 02:13:16;;;;;;;;;;;;;;;;;;;;;
2024/01/27 02:18:54;;;;;;;3.15;2.78;;;;;;;;;;4845058;29;20048;-94
2024/01/27 02:21:34;;;;;;;4.00;2.17;;;;;;;;;;4966672;23;20072;-95
2024/01/27 02:24:46;;;;;;;3.03;2.13;;;;;;;;;;4882479;29;20101;-94
2024/01/27 02:27:16;;;;;;;4.95;2.58;;;;;;;;;;4792995;29;20481;-96
2024/01/27 02:32:16;;;;;;;3.72;2.47;;;;;;;;;;4902798;23;20059;-95
2024/01/27 02:35:19;;;;;;;3.17;2.08;;;;;;;;;;4866222;29;20123;-95
2024/01/27 02:38:03;;;;;;;4.40;2.17;;;;;;;;;;4832989;29;20105;-96
2024/01/27 02:41:06;;;;;;;3.72;2.20;;;;;;;;;;4864606;29;20071;-96
2024/01/27 02:52:02;;;;;;;3.17;1.92;;;;;;;;;;4917488;23;20080;-96
2024/01/27 03:05:46;;;;;;;3.65;2.13;;;;;;;;;;4885263;29;20055;-96
2024/01/27 03:08:53;;;;;;;3.78;2.13;;;;;;;;;;4866452;29;20044;-95
2024/01/27 03:11:35;;;;;;;2.95;2.65;;;;;;;;;;4827576;29;20103;-95
2024/01/27 03:28:36;;;;;;;4.80;1.70;;;;;;;;;;5093607;23;20083;-96
2024/01/27 03:37:26;;;;;;;6.13;2.92;;;;;;;;;;4895154;29;20047;-96
2024/01/27 04:12:35;;;;;;;4.35;1.48;;;;;;;;;;4944535;23;20076;-95
2024/01/27 04:15:36;;;;;;;;;;;;;;;;;;;;;
2024/01/27 04:17:56;;;;;;;4.13;2.10;;;;;;;;;;4879772;29;20077;-96
2024/01/27 04:20:23;;;;;;;3.55;2.15;;;;;;;;;;4868291;29;20097;-88
2024/01/27 04:22:49;;;;;;;5.80;1.63;;;;;;;;;;4866586;29;20597;-89
2024/01/27 04:25:15;;;;;;;3.63;1.70;;;;;;;;;;4876332;29;20037;-95
2024/01/27 04:27:53;;;;;;;3.70;1.73;;;;;;;;;;4867436;29;20456;-94
2024/01/27 04:30:22;;;;;;;2.97;1.75;;;;;;;;;;4847896;29;20471;-94
2024/01/27 04:32:49;;;;;;;4.75;1.88;;;;;;;;;;4849878;29;20025;-92
2024/01/27 04:35:22;;;;;;;5.00;3.20;;;;;;;;;;4849636;29;20082;-92
2024/01/27 04:37:57;;;;;;;3.35;1.60;;;;;;;;;;4848936;29;20448;-94
2024/01/27 04:40:49;;;;;;;5.25;2.40;;;;;;;;;;4847825;29;20053;-95
2024/01/27 04:43:21;;;;;;;4.50;2.00;;;;;;;;;;4967608;23;20076;-87
2024/01/27 04:51:45;;;;;;;2.33;1.03;;;;;;;;;;4936007;23;20103;-95
2024/01/27 04:54:46;;;;;;;2.13;1.77;;;;;;;;;;4881998;29;20045;-94
2024/01/27 04:57:16;;;;;;;3.33;2.83;;;;;;;;;;4868384;29;20037;-95
2024/01/27 05:06:22;;;;;;;4.20;2.72;;;;;;;;;;4875342;23;20057;-94
2024/01/27 05:09:00;;;;;;;4.43;3.20;;;;;;;;;;4884557;29;20033;-95
2024/01/27 05:11:30;;;;;;;5.90;5.18;;;;;;;;;;4871326;29;20024;-94
2024/01/27 05:13:59;;;;;;;4.53;3.63;;;;;;;;;;4869794;29;20109;-94
2024/01/27 05:16:37;;;;;;;3.60;1.75;;;;;;;;;;4894653;29;20032;-96
2024/01/27 05:22:26;;;;;;;3.25;1.48;;;;;;;;;;4904525;29;20055;-93
2024/01/27 05:25:22;;;;;;;4.20;1.73;;;;;;;;;;4884700;29;20043;-95
2024/01/27 05:30:43;;;;;;;3.30;1.77;;;;;;;;;;4901764;29;20183;-88
2024/01/27 05:33:37;;;;;;;3.00;1.88;;;;;;;;;;4884710;29;20071;-94
2024/01/27 05:36:16;;;;;;;3.60;2.65;;;;;;;;;;4890989;23;20091;-94
2024/01/27 05:39:04;;;;;;;3.35;1.73;;;;;;;;;;4872205;29;20569;-93
2024/01/27 05:42:05;;;;;;;2.78;1.67;;;;;;;;;;4847250;29;20488;-95
2024/01/27 05:44:53;;;;;;;3.08;2.13;;;;;;;;;;4846925;29;20108;-94
2024/01/27 05:47:37;;;;;;;7.63;6.88;;;;;;;;;;4846622;29;20105;-93
2024/01/27 05:53:07;;;;;;;2.55;2.10;;;;;;;;;;4863339;29;20040;-87
2024/01/27 05:58:27;;;;;;;2.55;1.38;;;;;;;;;;4938062;23;20049;-94
2024/01/27 06:01:02;;;;;;;2.90;1.88;;;;;;;;;;4878720;29;20041;-95
2024/01/27 06:03:35;;;;;;;3.70;1.55;;;;;;;;;;4884148;29;20052;-92
2024/01/27 06:08:53;;;;;;;3.35;1.75;;;;;;;;;;4902223;23;20076;-87
2024/01/27 06:11:38;;;;;;;3.60;2.78;;;;;;;;;;4885404;29;20501;-93
2024/01/27 06:14:25;;;;;;;2.85;1.92;;;;;;;;;;4896928;29;20514;-94
2024/01/27 06:16:58;;;;;;;3.92;1.48;;;;;;;;;;4875114;29;20036;-95
2024/01/27 06:19:53;;;;;;;3.10;2.10;;;;;;;;;;4902113;29;20028;-94
2024/01/27 06:22:33;;;;;;;;;;;;;;;;;;;;;
2024/01/27 06:25:28;;;;;;;4.07;3.72;;;;;;;;;;5057490;23;20090;-91
2024/01/27 06:37:08;;;;;;;5.50;2.95;;;;;;;;;;4904926;29;20036;-95
2024/01/27 06:40:18;;;;;;;4.10;2.67;;;;;;;;;;4883498;29;20053;-95
2024/01/27 06:43:16;;;;;;;7.43;3.70;;;;;;;;;;4868581;29;20082;-96
2024/01/27 06:46:04;;;;;;;5.82;4.25;;;;;;;;;;4837159;29;20037;-94
2024/01/27 06:48:56;;;;;;;4.20;2.92;;;;;;;;;;4867926;29;20077;-95
2024/01/27 06:52:01;;;;;;;;;;;;;;;;;;;;;
2024/01/27 06:54:56;;;;;;;3.67;3.08;;;;;;;;;;4891962;29;20116;-96
2024/01/27 06:57:28;;;;;;;6.45;5.82;;;;;;;;;;4880521;29;20060;-92
2024/01/27 06:59:55;;;;;;;5.22;3.38;;;;;;;;;;4864233;29;20519;-95
2024/01/27 07:02:28;;;;;;;4.63;2.42;;;;;;;;;;4983938;23;20095;-89
2024/01/27 07:05:46;;;;;;;5.43;3.17;;;;;;;;;;4883113;29;20040;-96
2024/01/27 07:07:56;;;;;;;8.55;7.85;;;;;;;;;;4867252;29;20048;-96
2024/01/27 07:10:55;;;;;;;5.03;2.67;;;;;;;;;;5042570;23;20079;-94
2024/01/27 07:13:30;;;;;;;6.32;5.15;;;;;;;;;;4854644;29;20068;-88
2024/01/27 07:15:59;;;;;;;8.10;4.60;;;;;;;;;;4856870;29;20010;-95
2024/01/27 07:18:31;;;;;;;11.00;9.98;;;;;;;;;;4880294;29;20046;-92
2024/01/27 07:21:00;;;;;;;6.50;5.40;;;;;;;;;;4886317;29;20021;-93
2024/01/27 07:23:32;;;;;;;7.28;5.65;;;;;;;;;;4875850;29;20048;-87
2024/01/27 07:26:14;;;;;;;5.57;4.75;;;;;;;;;;4869197;29;20025;-95
2024/01/27 07:28:40;;;;;;;8.90;8.00;;;;;;;;;;4867325;29;20049;-89
2024/01/27 07:33:59;;;;;;;8.00;6.03;;;;;;;;;;4863412;29;20081;-89
2024/01/27 07:36:54;;;;;;;7.68;7.00;;;;;;;;;;5067943;23;20050;-94
2024/01/27 07:42:11;;;;;;;11.48;10.57;;;;;;;;;;4893616;29;20039;-90
2024/01/27 07:44:37;;;;;;;10.57;8.40;;;;;;;;;;4874863;29;20471;-90
2024/01/27 07:50:13;;;;;;;10.03;9.30;;;;;;;;;;4890542;29;20028;-95
2024/01/27 08:06:58;;;;;;;10.43;8.10;;;;;;;;;;5260790;23;20091;-95
2024/01/27 08:27:01;;;;;;;15.20;11.73;;;;;;;;;;5127596;23;20063;-96
2024/01/27 08:29:56;;;;;;;10.57;9.68;;;;;;;;;;5178161;23;20019;-96
2024/01/27 08:35:26;;;;;;;14.40;13.23;;;;;;;;;;4885263;29;20044;-94
2024/01/27 08:37:52;;;;;;;12.10;10.57;;;;;;;;;;4881652;29;20049;-92
2024/01/27 08:40:32;;;;;;;15.20;13.82;;;;;;;;;;4886565;29;20041;-96
2024/01/27 08:45:48;;;;;;;20.83;19.17;;;;;;;;;;4839214;29;20069;-96
2024/01/27 08:51:34;;;;;;;24.38;22.85;;;;;;;;;;4833979;29;20037;-96
2024/01/27 08:56:53;;;;;;;24.33;22.50;;;;;;;;;;4905153;24;20471;-88
2024/01/27 08:59:22;;;;;;;26.58;24.55;;;;;;;;;;4900551;29;20036;-93
2024/01/27 09:01:54;;;;;;;17.58;16.15;;;;;;;;;;4897164;29;20029;-93
2024/01/27 09:04:20;;;;;;;17.50;16.33;;;;;;;;;;4880468;29;20052;-88
2024/01/27 09:06:49;;;;;;;12.07;10.85;;;;;;;;;;4883869;29;20044;-91
2024/01/27 09:09:29;;;;;;;11.85;10.85;;;;;;;;;;4899720;29;20044;-96
2024/01/27 09:11:59;;;;;;;13.48;12.45;;;;;;;;;;4883822;29;20025;-95
2024/01/27 09:14:33;;;;;;;11.23;10.27;;;;;;;;;;4883743;29;20028;-94
2024/01/27 09:16:59;;;;;;;13.10;12.00;;;;;;;;;;4861861;29;20033;-89
2024/01/27 09:19:28;;;;;;;13.60;12.40;;;;;;;;;;4863173;29;20029;-93
2024/01/27 09:21:57;;;;;;;11.73;10.73;;;;;;;;;;4866521;29;20124;-90
2024/01/27 09:24:32;;;;;;;14.45;13.25;;;;;;;;;;4878121;29;20067;-92
2024/01/27 09:26:58;;;;;;;14.57;13.38;;;;;;;;;;4882018;29;20184;-88
2024/01/27 09:29:31;;;;;;;11.95;10.90;;;;;;;;;;4865100;29;20116;-95
2024/01/27 09:32:03;;;;;;;12.03;10.93;;;;;;;;;;4876619;29;20029;-96
2024/01/27 09:37:47;;;;;;;13.20;12.13;;;;;;;;;;5105835;23;20442;-95
2024/01/27 09:40:23;;;;;;;11.75;10.82;;;;;;;;;;4866933;29;20039;-96
2024/01/27 09:42:58;;;;;;;10.95;10.05;;;;;;;;;;4885766;29;20039;-93
2024/01/27 09:45:27;;;;;;;13.80;12.63;;;;;;;;;;4870708;29;20485;-95
2024/01/27 09:50:56;;;;;;;12.68;11.65;;;;;;;;;;4896321;29;20095;-96
2024/01/27 09:53:32;;;;;;;11.63;10.60;;;;;;;;;;5057110;23;20060;-88
2024/01/27 09:59:22;;;;;;;12.52;11.60;;;;;;;;;;4888319;29;20172;-95
2024/01/27 10:01:51;;;;;;;15.43;14.02;;;;;;;;;;4885161;29;20105;-90
2024/01/27 10:07:25;;;;;;;13.95;12.73;;;;;;;;;;4868697;29;20052;-91
2024/01/27 10:10:07;;;;;;;14.45;13.20;;;;;;;;;;4871149;29;20030;-91
2024/01/27 10:12:53;;;;;;;12.25;11.13;;;;;;;;;;4863234;29;20055;-94
2024/01/27 10:15:20;;;;;;;13.18;11.82;;;;;;;;;;4886994;29;20036;-96
2024/01/27 10:18:18;;;;;;;13.23;11.93;;;;;;;;;;4886401;29;20029;-92
2024/01/27 10:21:09;;;;;;;13.10;11.88;;;;;;;;;;4814411;29;20033;-96
2024/01/27 10:23:57;;;;;;;14.20;13.07;;;;;;;;;;4860059;29;20037;-91
2024/01/27 10:26:29;;;;;;;13.73;12.77;;;;;;;;;;4883883;29;20064;-94
2024/01/27 10:28:58;;;;;;;14.15;13.07;;;;;;;;;;4870230;29;20061;-96
2024/01/27 10:31:39;;;;;;;14.30;13.00;;;;;;;;;;4885033;29;20075;-95
2024/01/27 10:34:09;;;;;;;12.25;11.05;;;;;;;;;;4883545;29;20028;-91
2024/01/27 10:36:48;;;;;;;13.75;12.57;;;;;;;;;;4883315;29;20032;-90
2024/01/27 10:39:22;;;;;;;13.82;12.70;;;;;;;;;;4882985;29;20100;-92
2024/01/27 10:41:54;;;;;;;13.60;12.35;;;;;;;;;;4882936;29;20475;-95
2024/01/27 10:44:21;;;;;;;14.32;13.05;;;;;;;;;;4870768;29;20041;-90
2024/01/27 10:47:10;;;;;;;14.00;12.90;;;;;;;;;;4880581;29;20030;-92
2024/01/27 10:49:37;;;;;;;15.68;14.20;;;;;;;;;;4880287;29;20048;-91
2024/01/27 10:52:07;;;;;;;16.50;14.85;;;;;;;;;;4865000;29;20554;-91
2024/01/27 10:54:34;;;;;;;17.52;16.13;;;;;;;;;;4882926;29;20554;-95
2024/01/27 10:57:03;;;;;;;18.35;16.85;;;;;;;;;;4901735;29;20032;-96
2024/01/27 10:59:58;;;;;;;15.30;14.23;;;;;;;;;;4882988;29;20044;-96
2024/01/27 11:02:25;;;;;;;15.90;14.63;;;;;;;;;;4880905;29;20165;-91
2024/01/27 11:07:54;;;;;;;17.58;16.30;;;;;;;;;;4899310;29;20107;-95
2024/01/27 11:10:22;;;;;;;15.43;14.13;;;;;;;;;;4864313;29;20033;-92
2024/01/27 11:12:49;;;;;;;14.55;13.30;;;;;;;;;;4854372;29;20099;-91
2024/01/27 11:15:22;;;;;;;19.17;17.88;;;;;;;;;;4872890;29;20037;-96
2024/01/27 11:17:48;;;;;;;20.05;18.58;;;;;;;;;;4884728;29;20486;-92
2024/01/27 11:20:48;;;;;;;;;;;;;;;;;;;;;
2024/01/27 11:23:18;;;;;;;17.48;16.17;;;;;;;;;;4901190;29;20128;-96
2024/01/27 11:29:26;;;;;;;17.55;16.15;;;;;;;;;;4881592;29;20048;-91
2024/01/27 11:31:52;;;;;;;22.05;20.52;;;;;;;;;;4845704;29;20042;-95
2024/01/27 11:34:23;;;;;;;22.38;20.77;;;;;;;;;;4882626;29;20028;-96
2024/01/27 11:36:52;;;;;;;22.85;21.10;;;;;;;;;;4946048;23;20021;-93
2024/01/27 11:42:37;;;;;;;;;;;;;;;;;;;;;
2024/01/27 11:48:10;;;;;;;23.95;22.23;;;;;;;;;;4882673;29;20096;-89
2024/01/27 11:50:50;;;;;;;23.67;21.95;;;;;;;;;;4872887;29;20029;-94
2024/01/27 11:53:19;;;;;;;23.60;21.98;;;;;;;;;;4897302;29;20032;-95
2024/01/27 11:55:56;;;;;;;24.35;22.63;;;;;;;;;;4901671;23;20101;-94
2024/01/27 11:58:48;;;;;;;19.25;17.85;;;;;;;;;;4874595;29;20038;-95
2024/01/27 12:01:26;;;;;;;23.08;21.42;;;;;;;;;;4864997;29;20041;-94
2024/01/27 12:03:56;;;;;;;26.33;24.42;;;;;;;;;;4857203;29;20072;-90
2024/01/27 12:06:25;;;;;;;22.45;20.80;;;;;;;;;;4888298;29;20098;-89
2024/01/27 12:12:07;;;;;;;29.75;27.67;;;;;;;;;;4867357;29;20045;-90
2024/01/27 12:15:08;;;;;;;32.65;30.58;;;;;;;;;;4865625;29;20124;-94
2024/01/27 12:17:37;;;;;;;34.10;31.75;;;;;;;;;;4864209;29;20116;-93
2024/01/27 12:20:34;;;;;;;32.03;29.90;;;;;;;;;;4868260;29;20025;-94
2024/01/27 12:23:48;;;;;;;37.08;34.53;;;;;;;;;;4882058;29;20466;-96
2024/01/27 12:26:17;;;;;;;40.30;37.45;;;;;;;;;;4789437;30;20046;-93
2024/01/27 12:28:55;;;;;;;32.03;29.83;;;;;;;;;;4790380;30;20070;-95
2024/01/27 12:31:39;;;;;;;27.95;25.63;;;;;;;;;;4908972;24;20049;-91
2024/01/27 12:34:09;;;;;;;;;;;;;;;;;;4874736;29;20061;-96
2024/01/27 12:36:52;;;;;;;44.97;41.70;;;;;;;;;;4880940;29;19943;-94
2024/01/27 12:39:18;;;;;;;;;;;;;;;;;;4881335;29;20085;-88
2024/01/27 12:41:45;;;;;;;42.13;39.63;;;;;;;;;;4874866;29;20283;-92
2024/01/27 12:44:16;;;;;;;29.50;27.40;;;;;;;;;;4861822;29;20053;-94
2024/01/27 12:46:46;;;;;;;23.67;21.67;;;;;;;;;;4862200;29;20395;-93
2024/01/27 12:51:56;;;;;;;37.15;34.65;;;;;;;;;;4918294;23;20108;-88
2024/01/27 12:57:34;;;;;;;27.70;25.60;;;;;;;;;;4788227;30;20042;-90
2024/01/27 13:00:09;;;;;;;19.00;17.17;;;;;;;;;;4774052;30;20064;-91
2024/01/27 13:02:38;;;;;;;19.63;17.90;;;;;;;;;;4849901;29;20040;-94
2024/01/27 13:05:23;;;;;;;21.77;20.08;;;;;;;;;;4870406;29;20045;-95
2024/01/27 13:07:55;;;;;;;17.33;15.98;;;;;;;;;;4865203;29;20033;-95
2024/01/27 13:10:24;;;;;;;16.88;15.63;;;;;;;;;;4881864;29;20467;-96
2024/01/27 13:12:50;;;;;;;27.27;25.02;;;;;;;;;;4873916;29;20060;-94
2024/01/27 13:15:25;;;;;;;20.48;18.98;;;;;;;;;;4866076;29;20032;-95
2024/01/27 13:18:30;;;;;;;23.58;21.77;;;;;;;;;;4902349;29;20088;-93
2024/01/27 13:24:22;;;;;;;25.58;23.83;;;;;;;;;;4823999;29;20069;-90
2024/01/27 13:27:15;;;;;;;23.63;21.85;;;;;;;;;;4905211;29;20033;-89
2024/01/27 13:32:19;;;;;;;18.42;16.92;;;;;;;;;;4917114;23;20121;-93
2024/01/27 13:34:49;;;;;;;17.27;15.75;;;;;;;;;;4879527;29;20410;-95
2024/01/27 13:37:15;;;;;;;22.27;20.42;;;;;;;;;;4880054;29;20041;-93
2024/01/27 13:39:45;;;;;;;16.40;15.10;;;;;;;;;;4879581;29;20089;-93
2024/01/27 13:42:14;;;;;;;18.92;17.40;;;;;;;;;;4880828;29;20029;-95
2024/01/27 13:44:40;;;;;;;19.42;18.00;;;;;;;;;;4879948;29;20044;-90
2024/01/27 13:47:13;;;;;;;14.90;13.70;;;;;;;;;;4883990;29;20029;-94
2024/01/27 13:49:40;;;;;;;23.10;21.33;;;;;;;;;;4863960;29;20033;-89
2024/01/27 13:52:14;;;;;;;22.65;20.95;;;;;;;;;;4879271;29;20037;-93
2024/01/27 13:54:40;;;;;;;25.25;23.42;;;;;;;;;;4875468;29;20081;-91
2024/01/27 13:57:16;;;;;;;27.13;24.75;;;;;;;;;;4882973;29;20037;-95
2024/01/27 13:59:45;;;;;;;20.13;18.65;;;;;;;;;;4870200;29;20048;-91
2024/01/27 14:05:19;;;;;;;26.30;24.65;;;;;;;;;;4869798;29;20040;-96
2024/01/27 14:07:51;;;;;;;20.50;18.50;;;;;;;;;;4858229;29;20182;-88
2024/01/27 14:12:56;;;;;;;15.75;14.13;;;;;;;;;;5898566;23;20062;-96
2024/01/27 14:15:22;;;;;;;17.15;16.00;;;;;;;;;;4880121;29;20096;-94
2024/01/27 14:17:55;;;;;;;15.32;14.20;;;;;;;;;;4881348;29;20036;-95
2024/01/27 14:23:07;;;;;;;16.35;14.90;;;;;;;;;;4887604;29;20037;-90
2024/01/27 14:25:37;;;;;;;13.77;12.43;;;;;;;;;;4868776;29;20041;-96
2024/01/27 14:34:27;;;;;;;15.80;14.70;;;;;;;;;;4891504;29;20043;-92
2024/01/27 14:36:55;;;;;;;18.77;17.40;;;;;;;;;;4882746;29;20043;-95
2024/01/27 14:39:37;;;;;;;17.52;16.23;;;;;;;;;;4886116;29;20037;-95
2024/01/27 14:42:28;;;;;;;16.25;14.80;;;;;;;;;;4894605;29;20017;-96
2024/01/27 14:50:10;;;;;;;19.27;17.58;;;;;;;;;;4888211;29;20060;-96
2024/01/27 14:52:48;;;;;;;17.83;16.20;;;;;;;;;;4874593;29;20044;-95
2024/01/27 14:58:51;;;;;;;18.73;16.92;;;;;;;;;;4797245;30;20510;-92
2024/01/27 15:01:32;;;;;;;17.08;15.55;;;;;;;;;;4783570;29;20039;-96
2024/01/27 15:04:31;;;;;;;19.35;17.58;;;;;;;;;;4822108;29;20061;-96
2024/01/27 15:18:40;;;;;;;21.90;20.08;;;;;;;;;;4884533;29;20025;-95
2024/01/27 15:26:53;;;;;;;17.48;15.95;;;;;;;;;;4833333;29;20038;-93
2024/01/27 15:29:21;;;;;;;21.55;20.10;;;;;;;;;;4834716;29;20038;-95
2024/01/27 15:31:56;;;;;;;26.38;24.25;;;;;;;;;;4838796;29;20064;-95
2024/01/27 15:34:31;;;;;;;19.95;18.45;;;;;;;;;;4836648;29;20042;-96
2024/01/27 15:37:09;;;;;;;23.83;21.95;;;;;;;;;;4839596;29;20039;-96
2024/01/27 15:39:47;;;;;;;28.52;26.48;;;;;;;;;;4840762;29;20038;-90
2024/01/27 15:42:13;;;;;;;26.38;24.52;;;;;;;;;;4853808;29;20101;-94
2024/01/27 15:44:46;;;;;;;26.40;24.50;;;;;;;;;;4858043;29;20135;-96
2024/01/27 15:47:18;;;;;;;27.38;25.55;;;;;;;;;;4827967;29;20029;-95
2024/01/27 15:50:13;;;;;;;26.13;24.42;;;;;;;;;;4894931;29;20028;-95
2024/01/27 15:53:08;;;;;;;21.30;19.20;;;;;;;;;;4896335;29;20056;-93
2024/01/27 15:55:48;;;;;;;22.08;20.20;;;;;;;;;;4841238;29;20030;-90
2024/01/27 15:58:20;;;;;;;21.08;19.25;;;;;;;;;;4829683;29;20043;-94
2024/01/27 16:00:48;;;;;;;29.17;26.98;;;;;;;;;;4843856;29;20057;-92
2024/01/27 16:03:21;;;;;;;29.50;27.25;;;;;;;;;;4837552;29;20054;-90
2024/01/27 16:05:50;;;;;;;29.98;27.92;;;;;;;;;;4848287;29;20122;-96
2024/01/27 16:08:17;;;;;;;30.63;28.70;;;;;;;;;;4860132;29;20170;-94
2024/01/27 16:10:58;;;;;;;32.30;29.77;;;;;;;;;;4865909;29;20053;-96
2024/01/27 16:13:31;;;;;;;28.35;26.40;;;;;;;;;;4854909;29;20107;-95
2024/01/27 16:16:30;;;;;;;33.25;30.67;;;;;;;;;;4875982;29;20029;-96
2024/01/27 16:18:56;;;;;;;24.08;22.20;;;;;;;;;;4874590;29;20017;-92
2024/01/27 16:21:26;;;;;;;34.20;31.45;;;;;;;;;;4860914;29;20032;-92
2024/01/27 16:23:56;;;;;;;34.78;32.00;;;;;;;;;;4843609;29;20048;-90
2024/01/27 16:26:27;;;;;;;32.88;30.45;;;;;;;;;;4866938;29;20009;-91
2024/01/27 16:28:56;;;;;;;29.98;27.60;;;;;;;;;;4838893;29;20051;-85
2024/01/27 16:31:47;;;;;;;33.63;31.05;;;;;;;;;;4829565;29;20109;-95
2024/01/27 16:34:45;;;;;;;29.90;27.58;;;;;;;;;;4859355;29;20038;-89
2024/01/27 16:37:18;;;;;;;31.08;29.15;;;;;;;;;;4855079;29;20038;-87
2024/01/27 16:39:44;;;;;;;32.78;30.38;;;;;;;;;;4834131;29;20125;-88
2024/01/27 16:45:32;;;;;;;32.70;30.23;;;;;;;;;;4875323;29;20084;-95
2024/01/27 16:48:17;;;;;;;29.40;27.50;;;;;;;;;;4857244;29;20025;-85
2024/01/27 16:50:47;;;;;;;24.77;22.95;;;;;;;;;;4857662;29;20076;-84
2024/01/27 16:53:15;;;;;;;30.83;28.55;;;;;;;;;;4868569;29;20052;-85
2024/01/27 16:56:02;;;;;;;34.50;31.92;;;;;;;;;;4877145;29;20185;-89
2024/01/27 16:58:39;;;;;;;34.58;32.08;;;;;;;;;;4889953;29;20036;-95
2024/01/27 17:01:44;;;;;;;28.33;26.13;;;;;;;;;;4877749;29;20090;-96
2024/01/27 17:10:32;;;;;;;25.20;23.27;;;;;;;;;;4815714;29;20050;-96
2024/01/27 17:16:04;;;;;;;37.83;35.33;;;;;;;;;;4893089;29;20165;-95
2024/01/27 17:18:58;;;;;;;29.83;27.83;;;;;;;;;;4875726;29;20270;-95
2024/01/27 17:24:44;;;;;;;28.02;25.88;;;;;;;;;;4900544;29;20050;-95
2024/01/27 17:27:23;;;;;;;30.35;28.05;;;;;;;;;;4883818;29;20041;-93
2024/01/27 17:32:18;;;;;;;19.27;17.60;;;;;;;;;;4884410;29;20065;-94
2024/01/27 17:34:47;;;;;;;16.48;15.07;;;;;;;;;;4866266;29;20085;-93
2024/01/27 17:37:28;;;;;;;15.88;14.32;;;;;;;;;;4864556;29;20115;-94
2024/01/27 17:40:05;;;;;;;22.35;20.58;;;;;;;;;;4865575;29;20116;-93
2024/01/27 17:45:35;;;;;;;28.63;26.30;;;;;;;;;;4881868;29;20067;-89
2024/01/27 17:48:20;;;;;;;18.05;14.45;;;;;;;;;;4862782;29;20100;-95
2024/01/27 17:50:46;;;;;;;17.83;15.38;;;;;;;;;;4859466;29;20028;-94
2024/01/27 17:57:03;;;;;;;;;;;;;;;;;;;;;
2024/01/27 18:05:09;;;;;;;18.58;16.83;;;;;;;;;;5692748;23;20080;-96
2024/01/27 18:07:44;;;;;;;24.27;22.15;;;;;;;;;;4881633;29;20029;-95
2024/01/27 18:13:17;;;;;;;24.30;22.27;;;;;;;;;;4883367;29;20040;-96
2024/01/27 18:16:12;;;;;;;13.50;12.07;;;;;;;;;;4898701;23;20106;-95
2024/01/27 18:22:06;;;;;;;17.13;14.20;;;;;;;;;;4880986;29;20032;-95
2024/01/27 18:24:33;;;;;;;18.20;16.35;;;;;;;;;;4810374;29;20042;-88
2024/01/27 18:27:13;;;;;;;15.18;13.68;;;;;;;;;;4842360;29;20144;-96
2024/01/27 18:32:56;;;;;;;13.27;11.60;;;;;;;;;;4817177;29;20027;-96
2024/01/27 18:38:20;;;;;;;13.70;6.40;;;;;;;;;;5402639;23;20041;-90
2024/01/27 19:01:43;;;;;;;15.57;13.87;;;;;;;;;;4904077;29;20068;-96
2024/01/27 19:04:19;;;;;;;15.57;10.93;;;;;;;;;;4864555;29;20056;-96
2024/01/27 19:06:45;;;;;;;11.13;6.53;;;;;;;;;;4870616;29;20513;-95
2024/01/27 19:15:18;;;;;;;12.68;8.80;;;;;;;;;;4878031;29;20098;-90
2024/01/27 19:17:53;;;;;;;16.58;11.02;;;;;;;;;;4882383;29;20045;-92
2024/01/27 19:26:31;;;;;;;17.08;13.90;;;;;;;;;;4897597;23;20411;-92
2024/01/27 19:29:10;;;;;;;10.73;6.60;;;;;;;;;;4870211;29;20040;-93
2024/01/27 19:38:00;;;;;;;10.13;3.95;;;;;;;;;;4891263;29;20049;-95
2024/01/27 19:40:26;;;;;;;12.30;10.13;;;;;;;;;;4859147;29;20047;-87
2024/01/27 19:42:56;;;;;;;9.57;4.68;;;;;;;;;;4877385;29;20333;-89
2024/01/27 19:48:18;;;;;;;10.93;5.38;;;;;;;;;;4897396;23;20075;-90
2024/01/27 19:53:30;;;;;;;9.82;5.32;;;;;;;;;;5243108;23;20076;-94
2024/01/27 19:56:08;;;;;;;13.25;6.28;;;;;;;;;;4893582;29;20033;-87
2024/01/27 19:58:37;;;;;;;11.25;4.07;;;;;;;;;;4870840;29;20070;-89
2024/01/27 20:01:09;;;;;;;14.00;4.82;;;;;;;;;;4872907;29;20021;-85
2024/01/27 20:03:38;;;;;;;8.13;5.10;;;;;;;;;;4859465;29;20483;-87
2024/01/27 20:06:04;;;;;;;7.30;3.67;;;;;;;;;;4884606;29;20030;-95
2024/01/27 20:08:33;;;;;;;13.73;4.07;;;;;;;;;;4888268;29;20037;-93
2024/01/27 20:11:00;;;;;;;9.27;4.15;;;;;;;;;;4878760;29;20096;-84
2024/01/27 20:13:33;;;;;;;15.02;5.47;;;;;;;;;;4886535;29;20017;-85
2024/01/27 20:16:08;;;;;;;9.47;3.57;;;;;;;;;;4871433;29;20033;-95
2024/01/27 20:18:43;;;;;;;13.00;3.53;;;;;;;;;;4881593;29;20301;-88
2024/01/27 20:21:24;;;;;;;16.35;4.32;;;;;;;;;;5018583;23;20081;-85
2024/01/27 20:23:52;;;;;;;12.18;3.55;;;;;;;;;;4863416;29;20041;-85
2024/01/27 20:26:49;;;;;;;10.35;3.60;;;;;;;;;;4854926;29;20032;-96
2024/01/27 20:32:08;;;;;;;11.65;4.57;;;;;;;;;;4955372;23;20060;-86
2024/01/27 20:34:34;;;;;;;13.00;4.30;;;;;;;;;;4882020;29;20066;-96
2024/01/27 20:37:11;;;;;;;12.38;5.60;;;;;;;;;;4854955;29;20061;-88
2024/01/27 20:40:11;;;;;;;12.02;3.78;;;;;;;;;;4897228;29;20033;-95
2024/01/27 20:42:44;;;;;;;10.25;5.50;;;;;;;;;;4890732;29;20036;-94
2024/01/27 20:45:37;;;;;;;12.88;4.30;;;;;;;;;;4894734;29;20036;-89
2024/01/27 20:48:20;;;;;;;9.73;3.65;;;;;;;;;;4894103;29;20119;-96
2024/01/27 20:50:51;;;;;;;14.35;4.15;;;;;;;;;;4901049;29;20510;-88
2024/01/27 20:53:21;;;;;;;9.80;3.17;;;;;;;;;;4875906;29;20037;-96
2024/01/27 20:55:54;;;;;;;14.55;3.80;;;;;;;;;;4878767;29;20097;-90
2024/01/27 20:58:21;;;;;;;16.15;4.00;;;;;;;;;;4861317;29;20048;-89
2024/01/27 21:00:53;;;;;;;12.07;3.50;;;;;;;;;;4903811;29;20028;-95
2024/01/27 21:03:19;;;;;;;14.23;3.58;;;;;;;;;;4871075;29;20064;-96
2024/01/27 21:05:54;;;;;;;12.73;4.05;;;;;;;;;;4866606;29;20040;-95
2024/01/27 21:08:42;;;;;;;10.88;3.10;;;;;;;;;;4858492;29;20025;-94
2024/01/27 21:11:32;;;;;;;12.15;3.75;;;;;;;;;;4858214;29;20029;-95
2024/01/27 21:14:07;;;;;;;13.43;4.10;;;;;;;;;;4784733;29;20037;-88
2024/01/27 21:16:42;;;;;;;15.90;4.40;;;;;;;;;;4808463;29;20049;-96
2024/01/27 21:19:08;;;;;;;14.90;3.80;;;;;;;;;;4832121;29;20117;-89
2024/01/27 21:21:35;;;;;;;13.20;3.63;;;;;;;;;;4847833;29;20033;-95
2024/01/27 21:24:05;;;;;;;13.45;4.35;;;;;;;;;;4847164;29;20037;-95
2024/01/27 21:26:37;;;;;;;11.57;3.60;;;;;;;;;;4870769;29;20040;-95
2024/01/27 21:29:15;;;;;;;13.45;3.20;;;;;;;;;;4884676;29;20032;-95
2024/01/27 21:31:41;;;;;;;11.02;3.63;;;;;;;;;;4876758;29;20048;-95
2024/01/27 21:34:07;;;;;;;12.27;3.58;;;;;;;;;;4869792;29;20078;-90
2024/01/27 21:36:34;;;;;;;12.23;4.22;;;;;;;;;;4875628;29;20059;-93
2024/01/27 21:39:27;;;;;;;14.80;3.88;;;;;;;;;;4885832;29;20051;-93
2024/01/27 21:41:53;;;;;;;15.43;6.68;;;;;;;;;;4868804;29;20045;-89
2024/01/27 21:44:29;;;;;;;10.02;3.33;;;;;;;;;;4865419;29;20037;-95
2024/01/27 21:46:58;;;;;;;14.77;3.22;;;;;;;;;;4877734;29;20056;-96
2024/01/27 21:49:30;;;;;;;14.63;5.00;;;;;;;;;;4883902;29;20059;-96
2024/01/27 21:51:58;;;;;;;11.20;4.13;;;;;;;;;;4883190;29;20039;-94
2024/01/27 21:54:28;;;;;;;14.32;3.70;;;;;;;;;;4883702;29;20390;-89
2024/01/27 21:56:54;;;;;;;14.80;4.35;;;;;;;;;;4884772;29;20033;-92
2024/01/27 21:59:23;;;;;;;14.25;4.35;;;;;;;;;;4885568;29;20040;-94
2024/01/27 22:01:49;;;;;;;21.75;4.75;;;;;;;;;;4942348;23;20040;-94
2024/01/27 22:04:21;;;;;;;18.58;5.15;;;;;;;;;;4898801;29;20048;-96
2024/01/27 22:06:47;;;;;;;14.20;6.35;;;;;;;;;;4884069;29;20032;-89